Terminal Aerodrome Forecast
Issued by NWS Medford, OR

Home | Current Version | Previous Version | Text Only | Print | Product List | Glossary On
Versions: 1 2 3 4 5 6 7 8 9 10 11 12
000
FTUS46 KMFR 212300
TAFMFR
TAF
KMFR 212331Z 2200/2224 31008KT P6SM SCT120
     FM220200 VRB03KT P6SM SCT120
     FM222100 31007KT P6SM SCT100=

USA.gov is the U.S. government's official web portal to all federal, state and local government web resources and services.